עמוד ראשי
METAR-TAF:

METAR-TAF

שדות תעופה :

Tulita, הטריטוריות הצפון-מערביות, קנדה

קו רוחב: 64-55N, קו אורך: 125-34W, גובה: 98מטר

תצפית מזג אוויר נוכחית

הדו"ח נערך לפני 1 שעות ו 3דקות, בשעה 20:00 UTC
רוח 10קשר מכיוון מערב, משתנה בין דרום/דרום-מזרח ו מערב/צפון-מערב
טמפרטורת 20 צלסיוס
לחות 35%
לחץ 1012 hPa
ראות: 24.1קילומטר
עננים בינוניים בגובה 11000רגל
עננים בינוניים בגובה 13000רגל

METAR: CZFN 172000Z 28010KT 150V300 15SM BKN110 BKN130 20/04 A2987 RMK AC5AC1 SLP122 DENSITY ALT 1100FT

זמן: 15:03 (21:03 UTC)


TAF: חסר

תצפיות ותחזיות מזג אוויר לגבי יותר מ- 4,000 שדות תעופה ברחבי העולם. דוחות METAR ו- TAF.

התחנות הזמינות מסומנות בנקודות צהובות ואדומות על גבי המפה.

העבר את העכבר לנקודה הצבעונית על מנת לראות את שם התחנה.

לאחר מכן, לחץ כדי לראות את תוכן ואת תחזיות מזג האוויר.

כדי לשנות את המפה: לחץ על הכפתורים הירוקים עם הפלוס השחור כדי להתקרב; על הכפתור הירוק עם המקף כדי להתרחק; או בחיצים הירוקים למפות סמוכות.


METAR-TAF: